Avon, Maine
Current Conditions -  °F | °C
As of 4:55 PM on Monday 24 Nov 2014 (Local Time) from KWVL Reporting Station
Overcast Overcast  
Wind Chill: 59°   Ceiling: 300
Heat Index: 59°   Visibility: 9mi
Dew Point: 55°   Wind: 12mph
Humidity: 88%   Direction: 180°S
Pressure: 29.49"   Gusts: 18mph
Location:  44.8921°N, 70.379°W
Report Text: KWVL 242155Z 18010G16KT 9SM OVC003 15/13 A2949 RMK AO1
Loading
Personal Weather Stations






























Interactive Weather Map New forecast layout! Learn more

10-Day Weather Forecast

Advertisements
Track Severe Weather on mobile